AFL1505 USTR-UUEE
Flight info
| Callsign | AFL1505 |
|---|---|
| Flight time | N/A |
| Altitude | 36000 |
| Route | N0460F360 BEPAR T448 BANAM T348 EKB M864 KERUN P164 IDMOR M864 IBROT T535 URIDU L158 DIMGI |
| Aircraft | B738/M-VGDW/C |
Departure
| Time | 2026-04-27 09:07 |
|---|---|
| Airport | Roshchino International Airport (USTR) |
Arrival
| Time | N/A |
|---|---|
| Airport | Sheremetyevo International Airport (UUEE) |
| Time | Latitude | Longitude | Altitude | Speed | Heading |
|---|---|---|---|---|---|
| 2026-04-27 08:54 | 57.18018 | 65.34915 | 334 ft | 0 kts | 45° |
| 2026-04-27 08:59 | 57.18006 | 65.34895 | 340 ft | 2 kts | 45° |
| 2026-04-27 08:59 | 57.17995 | 65.34873 | 334 ft | 2 kts | 45° |
| 2026-04-27 08:59 | 57.17983 | 65.34851 | 340 ft | 2 kts | 45° |
| 2026-04-27 08:59 | 57.17971 | 65.34830 | 334 ft | 2 kts | 30° |
| 2026-04-27 09:00 | 57.17956 | 65.34827 | 340 ft | 2 kts | 319° |
| 2026-04-27 09:00 | 57.17945 | 65.34847 | 337 ft | 1 kts | 314° |
| 2026-04-27 09:00 | 57.17944 | 65.34849 | 337 ft | 0 kts | 314° |
| 2026-04-27 09:02 | 57.17952 | 65.34833 | 334 ft | 5 kts | 313° |
| 2026-04-27 09:02 | 57.17993 | 65.34754 | 336 ft | 12 kts | 314° |
| 2026-04-27 09:02 | 57.18068 | 65.34618 | 340 ft | 18 kts | 315° |
| 2026-04-27 09:02 | 57.18166 | 65.34436 | 338 ft | 20 kts | 315° |
| 2026-04-27 09:03 | 57.18263 | 65.34257 | 337 ft | 19 kts | 314° |
| 2026-04-27 09:03 | 57.18357 | 65.34082 | 337 ft | 20 kts | 314° |
| 2026-04-27 09:03 | 57.18455 | 65.33900 | 338 ft | 21 kts | 315° |
| 2026-04-27 09:03 | 57.18561 | 65.33706 | 339 ft | 22 kts | 315° |
| 2026-04-27 09:04 | 57.18619 | 65.33500 | 339 ft | 18 kts | 271° |
| 2026-04-27 09:04 | 57.18572 | 65.33274 | 337 ft | 23 kts | 225° |
| 2026-04-27 09:04 | 57.18477 | 65.33031 | 333 ft | 24 kts | 263° |
| 2026-04-27 09:04 | 57.18471 | 65.32733 | 330 ft | 25 kts | 268° |
| 2026-04-27 09:05 | 57.18465 | 65.32381 | 341 ft | 29 kts | 268° |
| 2026-04-27 09:05 | 57.18517 | 65.32103 | 349 ft | 23 kts | 318° |
| 2026-04-27 09:05 | 57.18632 | 65.31910 | 353 ft | 22 kts | 319° |
| 2026-04-27 09:05 | 57.18702 | 65.31731 | 355 ft | 11 kts | 252° |
| 2026-04-27 09:06 | 57.18657 | 65.31624 | 351 ft | 10 kts | 228° |
| 2026-04-27 09:06 | 57.18515 | 65.31339 | 358 ft | 68 kts | 227° |
| 2026-04-27 09:06 | 57.18004 | 65.30302 | 374 ft | 148 kts | 227° |
| 2026-04-27 09:06 | 57.17189 | 65.28664 | 820 ft | 182 kts | 228° |
| 2026-04-27 09:07 | 57.16379 | 65.26922 | 2048 ft | 189 kts | 244° |
| 2026-04-27 09:07 | 57.16573 | 65.24733 | 2773 ft | 174 kts | 310° |
| 2026-04-27 09:07 | 57.17395 | 65.23070 | 3556 ft | 181 kts | 303° |
| 2026-04-27 09:07 | 57.18082 | 65.21113 | 4419 ft | 184 kts | 296° |
| 2026-04-27 09:08 | 57.18527 | 65.18935 | 5244 ft | 183 kts | 285° |
| 2026-04-27 09:08 | 57.18723 | 65.17016 | 5823 ft | 184 kts | 273° |
| 2026-04-27 09:08 | 57.18686 | 65.15058 | 6526 ft | 183 kts | 266° |
| 2026-04-27 09:08 | 57.18556 | 65.12699 | 7075 ft | 192 kts | 265° |
| 2026-04-27 09:09 | 57.18403 | 65.10149 | 7497 ft | 208 kts | 264° |
| 2026-04-27 09:09 | 57.18235 | 65.07386 | 8011 ft | 225 kts | 264° |
| 2026-04-27 09:09 | 57.18059 | 65.04439 | 8482 ft | 240 kts | 264° |
| 2026-04-27 09:09 | 57.17872 | 65.01371 | 9191 ft | 234 kts | 264° |
| 2026-04-27 09:10 | 57.17693 | 64.98416 | 10117 ft | 231 kts | 264° |
| 2026-04-27 09:10 | 57.17517 | 64.95507 | 10939 ft | 227 kts | 264° |
| 2026-04-27 09:10 | 57.17338 | 64.92548 | 11445 ft | 238 kts | 264° |
| 2026-04-27 09:10 | 57.17150 | 64.89468 | 11967 ft | 247 kts | 264° |
| 2026-04-27 09:11 | 57.16955 | 64.86260 | 12495 ft | 257 kts | 264° |
| 2026-04-27 09:11 | 57.16751 | 64.82926 | 13056 ft | 266 kts | 264° |
| 2026-04-27 09:11 | 57.16538 | 64.79456 | 13532 ft | 280 kts | 264° |
| 2026-04-27 09:11 | 57.16314 | 64.75807 | 13852 ft | 297 kts | 264° |
| 2026-04-27 09:12 | 57.16079 | 64.72003 | 14166 ft | 313 kts | 264° |
| 2026-04-27 09:12 | 57.15826 | 64.67923 | 14474 ft | 328 kts | 264° |
| 2026-04-27 09:12 | 57.15560 | 64.63655 | 14781 ft | 343 kts | 264° |
| 2026-04-27 09:12 | 57.15284 | 64.59245 | 15091 ft | 356 kts | 264° |
| 2026-04-27 09:13 | 57.14993 | 64.54628 | 15397 ft | 369 kts | 264° |
| 2026-04-27 09:13 | 57.14689 | 64.49844 | 15705 ft | 379 kts | 264° |
| 2026-04-27 09:13 | 57.14447 | 64.45014 | 16218 ft | 379 kts | 266° |
| 2026-04-27 09:13 | 57.14290 | 64.40146 | 16793 ft | 382 kts | 267° |
| 2026-04-27 09:14 | 57.14157 | 64.35229 | 17348 ft | 385 kts | 268° |
| 2026-04-27 09:14 | 57.14024 | 64.30295 | 17919 ft | 388 kts | 267° |
| 2026-04-27 09:14 | 57.13882 | 64.25337 | 18478 ft | 390 kts | 267° |
| 2026-04-27 09:14 | 57.13731 | 64.20359 | 18979 ft | 392 kts | 267° |
| 2026-04-27 09:15 | 57.13571 | 64.15339 | 19484 ft | 394 kts | 267° |
| 2026-04-27 09:15 | 57.13405 | 64.10277 | 20003 ft | 395 kts | 267° |
| 2026-04-27 09:15 | 57.13234 | 64.05184 | 20536 ft | 396 kts | 267° |
| 2026-04-27 09:15 | 57.13062 | 64.00108 | 21067 ft | 397 kts | 267° |
| 2026-04-27 09:16 | 57.12890 | 63.95102 | 21606 ft | 397 kts | 267° |
| 2026-04-27 09:16 | 57.12714 | 63.89995 | 22162 ft | 397 kts | 267° |
| 2026-04-27 09:16 | 57.12537 | 63.84940 | 22728 ft | 397 kts | 267° |
| 2026-04-27 09:16 | 57.12357 | 63.79889 | 23299 ft | 396 kts | 267° |
| 2026-04-27 09:17 | 57.12136 | 63.74800 | 23853 ft | 395 kts | 263° |
| 2026-04-27 09:17 | 57.11626 | 63.69854 | 24344 ft | 395 kts | 259° |
| 2026-04-27 09:17 | 57.11042 | 63.64899 | 24853 ft | 393 kts | 259° |
| 2026-04-27 09:17 | 57.10456 | 63.60024 | 25358 ft | 391 kts | 259° |
| 2026-04-27 09:18 | 57.09871 | 63.55152 | 25875 ft | 389 kts | 259° |
| 2026-04-27 09:18 | 57.09292 | 63.50308 | 26393 ft | 387 kts | 259° |
| 2026-04-27 09:18 | 57.08719 | 63.45502 | 26932 ft | 385 kts | 259° |
| 2026-04-27 09:18 | 57.08152 | 63.40728 | 27478 ft | 382 kts | 260° |
| 2026-04-27 09:19 | 57.07581 | 63.35923 | 28039 ft | 379 kts | 260° |
| 2026-04-27 09:19 | 57.07021 | 63.31216 | 28606 ft | 376 kts | 260° |
| 2026-04-27 09:19 | 57.06466 | 63.26566 | 29177 ft | 373 kts | 260° |
| 2026-04-27 09:19 | 57.05914 | 63.21949 | 29760 ft | 369 kts | 260° |
| 2026-04-27 09:20 | 57.05367 | 63.17392 | 30331 ft | 365 kts | 260° |
| 2026-04-27 09:20 | 57.04822 | 63.12864 | 30838 ft | 360 kts | 260° |
| 2026-04-27 09:20 | 57.04282 | 63.08394 | 31358 ft | 356 kts | 260° |
| 2026-04-27 09:20 | 57.03749 | 63.03998 | 31872 ft | 351 kts | 260° |
| 2026-04-27 09:21 | 57.03216 | 62.99604 | 32123 ft | 354 kts | 260° |
| 2026-04-27 09:21 | 57.02680 | 62.95193 | 32401 ft | 356 kts | 260° |
| 2026-04-27 09:21 | 57.02139 | 62.90759 | 32665 ft | 357 kts | 260° |
| 2026-04-27 09:21 | 57.01593 | 62.86304 | 32933 ft | 358 kts | 260° |
| 2026-04-27 09:22 | 57.01043 | 62.81837 | 33205 ft | 359 kts | 260° |
| 2026-04-27 09:22 | 57.00489 | 62.77348 | 33479 ft | 360 kts | 260° |
| 2026-04-27 09:22 | 56.99936 | 62.72878 | 33754 ft | 361 kts | 260° |
| 2026-04-27 09:22 | 56.99371 | 62.68337 | 34041 ft | 362 kts | 260° |
| 2026-04-27 09:23 | 56.98810 | 62.63831 | 34071 ft | 367 kts | 260° |
| 2026-04-27 09:23 | 56.97653 | 62.54579 | 34093 ft | 377 kts | 259° |
| 2026-04-27 09:24 | 56.96457 | 62.45092 | 34094 ft | 387 kts | 259° |
| 2026-04-27 09:24 | 56.95223 | 62.35366 | 34092 ft | 397 kts | 259° |
| 2026-04-27 09:25 | 56.93955 | 62.25451 | 34094 ft | 405 kts | 259° |
| 2026-04-27 09:25 | 56.92660 | 62.15398 | 34081 ft | 407 kts | 259° |
| 2026-04-27 09:26 | 56.91346 | 62.05266 | 34085 ft | 407 kts | 258° |
| 2026-04-27 09:26 | 56.90038 | 61.95239 | 34080 ft | 407 kts | 258° |
| 2026-04-27 09:27 | 56.88707 | 61.85111 | 34073 ft | 407 kts | 258° |
| 2026-04-27 09:27 | 56.87386 | 61.75120 | 34071 ft | 406 kts | 258° |
| 2026-04-27 09:28 | 56.86049 | 61.65082 | 34075 ft | 405 kts | 258° |
| 2026-04-27 09:28 | 56.84710 | 61.55089 | 34076 ft | 404 kts | 258° |
| 2026-04-27 09:29 | 56.83374 | 61.45191 | 34070 ft | 403 kts | 258° |
| 2026-04-27 09:29 | 56.82064 | 61.35542 | 34070 ft | 403 kts | 258° |
| 2026-04-27 09:30 | 56.80710 | 61.25640 | 34075 ft | 403 kts | 257° |
| 2026-04-27 09:30 | 56.79344 | 61.15704 | 34077 ft | 403 kts | 257° |
| 2026-04-27 09:31 | 56.77978 | 61.05836 | 34070 ft | 403 kts | 257° |
| 2026-04-27 09:31 | 56.76595 | 60.95899 | 34078 ft | 403 kts | 257° |
| 2026-04-27 09:32 | 56.75207 | 60.85993 | 34077 ft | 404 kts | 258° |
| 2026-04-27 09:32 | 56.74617 | 60.75821 | 34088 ft | 404 kts | 271° |
| 2026-04-27 09:33 | 56.75258 | 60.65731 | 34079 ft | 405 kts | 277° |
| 2026-04-27 09:33 | 56.76013 | 60.55499 | 34063 ft | 406 kts | 276° |
| 2026-04-27 09:34 | 56.76731 | 60.45326 | 34064 ft | 406 kts | 276° |
| 2026-04-27 09:34 | 56.77434 | 60.35082 | 34062 ft | 407 kts | 276° |
| 2026-04-27 09:35 | 56.78128 | 60.24842 | 34049 ft | 407 kts | 276° |
| 2026-04-27 09:35 | 56.78815 | 60.14567 | 34036 ft | 408 kts | 276° |
| 2026-04-27 09:36 | 56.79459 | 60.04290 | 34042 ft | 408 kts | 275° |
| 2026-04-27 09:36 | 56.80074 | 59.94021 | 34035 ft | 408 kts | 275° |
| 2026-04-27 09:37 | 56.80685 | 59.83726 | 34034 ft | 408 kts | 275° |
| 2026-04-27 09:37 | 56.81292 | 59.73419 | 34037 ft | 408 kts | 275° |
| 2026-04-27 09:38 | 56.81890 | 59.63130 | 34034 ft | 408 kts | 275° |
| 2026-04-27 09:38 | 56.82383 | 59.54522 | 34033 ft | 409 kts | 274° |
| 2026-04-27 09:39 | 56.83065 | 59.42468 | 34029 ft | 409 kts | 274° |
| 2026-04-27 09:39 | 56.83541 | 59.33919 | 34031 ft | 409 kts | 274° |
| 2026-04-27 09:40 | 56.84110 | 59.23558 | 34020 ft | 409 kts | 274° |
| 2026-04-27 09:40 | 56.84670 | 59.13224 | 34019 ft | 410 kts | 274° |
| 2026-04-27 09:41 | 56.85148 | 59.02869 | 34014 ft | 409 kts | 271° |
| 2026-04-27 09:41 | 56.85348 | 58.92436 | 34015 ft | 409 kts | 270° |
| 2026-04-27 09:42 | 56.85497 | 58.82102 | 34011 ft | 409 kts | 270° |
| 2026-04-27 09:42 | 56.85656 | 58.71660 | 34011 ft | 409 kts | 270° |
| 2026-04-27 09:43 | 56.85819 | 58.61309 | 34007 ft | 409 kts | 270° |
| 2026-04-27 09:43 | 56.85978 | 58.50868 | 33998 ft | 409 kts | 270° |
| 2026-04-27 09:44 | 56.86129 | 58.40515 | 34001 ft | 410 kts | 270° |
| 2026-04-27 09:44 | 56.86272 | 58.30049 | 33996 ft | 410 kts | 269° |
| 2026-04-27 09:45 | 56.86406 | 58.19671 | 33992 ft | 410 kts | 269° |
| 2026-04-27 09:45 | 56.86531 | 58.09283 | 33992 ft | 410 kts | 269° |
| 2026-04-27 09:46 | 56.86648 | 57.98802 | 33991 ft | 410 kts | 269° |
| 2026-04-27 09:46 | 56.86755 | 57.88446 | 33983 ft | 410 kts | 269° |
| 2026-04-27 09:47 | 56.86855 | 57.77941 | 33975 ft | 410 kts | 269° |
| 2026-04-27 09:47 | 56.86946 | 57.67558 | 34158 ft | 407 kts | 269° |
| 2026-04-27 09:47 | 56.86988 | 57.62397 | 34386 ft | 405 kts | 268° |
| 2026-04-27 09:48 | 56.87027 | 57.57270 | 34618 ft | 404 kts | 268° |
| 2026-04-27 09:48 | 56.87064 | 57.52153 | 34851 ft | 402 kts | 268° |
| 2026-04-27 09:48 | 56.87099 | 57.47049 | 35086 ft | 400 kts | 268° |
| 2026-04-27 09:48 | 56.87132 | 57.41961 | 35325 ft | 399 kts | 268° |
| 2026-04-27 09:49 | 56.87162 | 57.36913 | 35563 ft | 397 kts | 268° |
| 2026-04-27 09:49 | 56.87190 | 57.31939 | 35803 ft | 395 kts | 268° |
| 2026-04-27 09:49 | 56.87216 | 57.26925 | 35961 ft | 396 kts | 268° |
| 2026-04-27 09:50 | 56.87262 | 57.16752 | 35954 ft | 404 kts | 268° |
| 2026-04-27 09:50 | 56.87300 | 57.06372 | 35957 ft | 412 kts | 268° |
| 2026-04-27 09:51 | 56.87331 | 56.95803 | 35953 ft | 419 kts | 268° |
| 2026-04-27 09:51 | 56.87355 | 56.85099 | 35952 ft | 421 kts | 268° |
| 2026-04-27 09:52 | 56.87369 | 56.74438 | 35944 ft | 423 kts | 267° |
| 2026-04-27 09:52 | 56.87374 | 56.63647 | 35932 ft | 423 kts | 267° |
| 2026-04-27 09:53 | 56.87371 | 56.52948 | 35931 ft | 421 kts | 267° |
| 2026-04-27 09:53 | 56.87368 | 56.42209 | 35920 ft | 420 kts | 268° |
| 2026-04-27 09:54 | 56.87471 | 56.31594 | 35920 ft | 419 kts | 268° |
| 2026-04-27 09:54 | 56.87592 | 56.20929 | 35914 ft | 417 kts | 268° |
| 2026-04-27 09:55 | 56.87688 | 56.10373 | 35907 ft | 416 kts | 268° |
| 2026-04-27 09:55 | 56.87809 | 55.94573 | 35904 ft | 414 kts | 267° |
| 2026-04-27 09:56 | 56.87810 | 55.83978 | 35900 ft | 413 kts | 265° |
| 2026-04-27 09:56 | 56.87661 | 55.73480 | 35893 ft | 413 kts | 265° |
| 2026-04-27 09:57 | 56.87499 | 55.62994 | 35895 ft | 414 kts | 265° |
| 2026-04-27 09:57 | 56.87344 | 55.52447 | 35890 ft | 415 kts | 265° |
| 2026-04-27 09:58 | 56.87189 | 55.41910 | 35880 ft | 416 kts | 264° |
| 2026-04-27 09:58 | 56.87025 | 55.31334 | 35882 ft | 417 kts | 264° |
| 2026-04-27 09:59 | 56.86852 | 55.20714 | 35877 ft | 418 kts | 264° |
| 2026-04-27 09:59 | 56.86671 | 55.10115 | 35869 ft | 418 kts | 264° |
| 2026-04-27 10:00 | 56.86479 | 54.99475 | 35874 ft | 419 kts | 264° |
| 2026-04-27 10:00 | 56.86279 | 54.88846 | 35859 ft | 419 kts | 264° |
| 2026-04-27 10:01 | 56.86069 | 54.78173 | 35860 ft | 419 kts | 263° |
| 2026-04-27 10:01 | 56.85853 | 54.67563 | 35853 ft | 418 kts | 263° |
| 2026-04-27 10:02 | 56.85636 | 54.56916 | 35837 ft | 419 kts | 263° |
| 2026-04-27 10:02 | 56.85502 | 54.46295 | 35844 ft | 419 kts | 264° |
| 2026-04-27 10:03 | 56.85371 | 54.35699 | 35838 ft | 419 kts | 263° |
| 2026-04-27 10:03 | 56.85219 | 54.25036 | 35827 ft | 419 kts | 263° |
| 2026-04-27 10:04 | 56.85054 | 54.14437 | 35827 ft | 419 kts | 263° |
| 2026-04-27 10:04 | 56.84850 | 54.03781 | 35821 ft | 419 kts | 262° |
| 2026-04-27 10:05 | 56.84591 | 53.93153 | 35817 ft | 419 kts | 262° |
| 2026-04-27 10:05 | 56.84325 | 53.82483 | 35814 ft | 420 kts | 262° |
| 2026-04-27 10:06 | 56.84057 | 53.71846 | 35808 ft | 421 kts | 262° |
| 2026-04-27 10:06 | 56.83781 | 53.61127 | 35801 ft | 422 kts | 262° |
| 2026-04-27 10:07 | 56.83498 | 53.50468 | 35796 ft | 422 kts | 262° |
| 2026-04-27 10:07 | 56.83302 | 53.39663 | 35792 ft | 425 kts | 264° |
| 2026-04-27 10:08 | 56.83337 | 53.28894 | 35794 ft | 426 kts | 264° |
| 2026-04-27 10:08 | 56.83368 | 53.18081 | 35785 ft | 426 kts | 264° |
| 2026-04-27 10:09 | 56.83362 | 53.07278 | 35771 ft | 426 kts | 264° |
| 2026-04-27 10:09 | 56.83342 | 52.96460 | 35771 ft | 427 kts | 264° |
| 2026-04-27 10:10 | 56.83297 | 52.85630 | 35763 ft | 427 kts | 263° |
| 2026-04-27 10:10 | 56.83219 | 52.74752 | 35762 ft | 427 kts | 263° |
| 2026-04-27 10:11 | 56.83135 | 52.63935 | 35747 ft | 427 kts | 263° |
| 2026-04-27 10:11 | 56.83045 | 52.53040 | 35753 ft | 427 kts | 263° |
| 2026-04-27 10:12 | 56.82946 | 52.42188 | 35734 ft | 427 kts | 263° |
| 2026-04-27 10:12 | 56.82838 | 52.31367 | 35731 ft | 427 kts | 263° |
| 2026-04-27 10:13 | 56.82779 | 52.25949 | 34786 ft | 428 kts | 269° |
| 2026-04-27 10:13 | 56.82713 | 52.20542 | 35030 ft | 426 kts | 269° |
| 2026-04-27 10:13 | 56.82680 | 52.15090 | 35275 ft | 425 kts | 270° |
| 2026-04-27 10:13 | 56.82741 | 52.09739 | 35516 ft | 424 kts | 271° |
| 2026-04-27 10:14 | 56.82843 | 52.04320 | 35734 ft | 423 kts | 272° |
| 2026-04-27 10:14 | 56.82949 | 51.98958 | 35851 ft | 425 kts | 271° |
| 2026-04-27 10:14 | 56.83131 | 51.88147 | 35985 ft | 431 kts | 271° |
| 2026-04-27 10:15 | 56.83281 | 51.77080 | 36009 ft | 439 kts | 271° |
| 2026-04-27 10:15 | 56.83417 | 51.65845 | 36011 ft | 448 kts | 271° |
| 2026-04-27 10:16 | 56.83546 | 51.54338 | 36010 ft | 455 kts | 270° |
| 2026-04-27 10:16 | 56.83259 | 51.42681 | 36004 ft | 460 kts | 265° |
| 2026-04-27 10:17 | 56.82762 | 51.31026 | 36000 ft | 462 kts | 265° |
| 2026-04-27 10:17 | 56.82266 | 51.19349 | 35998 ft | 463 kts | 265° |
| 2026-04-27 10:18 | 56.81787 | 51.07582 | 35999 ft | 462 kts | 265° |
| 2026-04-27 10:18 | 56.81316 | 50.95984 | 35995 ft | 460 kts | 265° |
| 2026-04-27 10:19 | 56.80833 | 50.84324 | 36001 ft | 458 kts | 265° |
| 2026-04-27 10:19 | 56.80342 | 50.72752 | 35999 ft | 456 kts | 265° |
| 2026-04-27 10:20 | 56.79842 | 50.61248 | 36004 ft | 454 kts | 265° |
| 2026-04-27 10:20 | 56.79332 | 50.49783 | 36000 ft | 453 kts | 265° |
| 2026-04-27 10:21 | 56.78903 | 50.40290 | 36002 ft | 453 kts | 265° |
| 2026-04-27 10:21 | 56.78286 | 50.26927 | 36004 ft | 453 kts | 265° |
| 2026-04-27 10:22 | 56.77837 | 50.17387 | 36002 ft | 453 kts | 265° |
| 2026-04-27 10:22 | 56.77285 | 50.05873 | 36005 ft | 454 kts | 264° |
| 2026-04-27 10:23 | 56.76726 | 49.94428 | 35999 ft | 455 kts | 264° |
| 2026-04-27 10:23 | 56.76154 | 49.82913 | 36006 ft | 456 kts | 264° |
| 2026-04-27 10:24 | 56.75741 | 49.71351 | 36003 ft | 457 kts | 267° |
| 2026-04-27 10:24 | 56.75487 | 49.59780 | 36001 ft | 458 kts | 267° |
| 2026-04-27 10:25 | 56.75209 | 49.48169 | 36001 ft | 459 kts | 267° |
| 2026-04-27 10:25 | 56.74891 | 49.36534 | 36006 ft | 459 kts | 266° |
| 2026-04-27 10:26 | 56.74554 | 49.24999 | 35998 ft | 458 kts | 266° |
| 2026-04-27 10:26 | 56.74204 | 49.13403 | 35997 ft | 458 kts | 266° |
| 2026-04-27 10:27 | 56.73850 | 49.01791 | 36858 ft | 452 kts | 262° |
| 2026-04-27 10:27 | 56.73677 | 48.96212 | 36571 ft | 441 kts | 262° |
| 2026-04-27 10:27 | 56.73499 | 48.90650 | 36304 ft | 431 kts | 262° |
| 2026-04-27 10:28 | 56.73322 | 48.85230 | 36050 ft | 426 kts | 262° |
| 2026-04-27 10:28 | 56.73143 | 48.79914 | 35812 ft | 426 kts | 262° |
| 2026-04-27 10:28 | 56.72961 | 48.74553 | 35659 ft | 423 kts | 262° |
| 2026-04-27 10:28 | 56.72778 | 48.69159 | 35573 ft | 420 kts | 262° |
| 2026-04-27 10:29 | 56.72410 | 48.58509 | 35472 ft | 424 kts | 262° |
| 2026-04-27 10:29 | 56.72027 | 48.47709 | 35467 ft | 430 kts | 262° |
| 2026-04-27 10:30 | 56.71635 | 48.36861 | 35458 ft | 432 kts | 262° |
| 2026-04-27 10:30 | 56.71232 | 48.25914 | 35452 ft | 434 kts | 262° |
| 2026-04-27 10:31 | 56.70820 | 48.14990 | 35450 ft | 433 kts | 262° |
| 2026-04-27 10:31 | 56.70397 | 48.04022 | 35449 ft | 433 kts | 262° |
| 2026-04-27 10:32 | 56.69967 | 47.93135 | 35446 ft | 432 kts | 261° |
| 2026-04-27 10:32 | 56.69528 | 47.82261 | 35453 ft | 432 kts | 261° |
| 2026-04-27 10:33 | 56.69078 | 47.71354 | 35452 ft | 432 kts | 262° |
| 2026-04-27 10:33 | 56.68618 | 47.60447 | 35454 ft | 432 kts | 262° |
| 2026-04-27 10:34 | 56.68149 | 47.49552 | 35452 ft | 433 kts | 262° |
| 2026-04-27 10:34 | 56.67669 | 47.38583 | 35448 ft | 434 kts | 261° |
| 2026-04-27 10:35 | 56.66931 | 47.27761 | 35445 ft | 430 kts | 253° |
| 2026-04-27 10:35 | 56.64994 | 47.17575 | 35447 ft | 427 kts | 247° |
| 2026-04-27 10:36 | 56.62905 | 47.07439 | 35436 ft | 428 kts | 247° |
| 2026-04-27 10:36 | 56.60850 | 46.97339 | 35444 ft | 428 kts | 247° |
| 2026-04-27 10:37 | 56.58796 | 46.87196 | 35442 ft | 428 kts | 247° |
| 2026-04-27 10:37 | 56.56739 | 46.77072 | 35432 ft | 428 kts | 247° |
| 2026-04-27 10:38 | 56.54671 | 46.66948 | 35426 ft | 427 kts | 247° |
| 2026-04-27 10:38 | 56.52592 | 46.56835 | 35432 ft | 427 kts | 247° |
| 2026-04-27 10:39 | 56.50512 | 46.46786 | 35423 ft | 427 kts | 247° |
| 2026-04-27 10:39 | 56.48430 | 46.36771 | 35432 ft | 427 kts | 247° |
| 2026-04-27 10:40 | 56.46329 | 46.26706 | 35416 ft | 427 kts | 247° |
| 2026-04-27 10:40 | 56.44218 | 46.16644 | 35416 ft | 427 kts | 247° |
| 2026-04-27 10:41 | 56.42102 | 46.06611 | 35414 ft | 426 kts | 247° |
| 2026-04-27 10:41 | 56.39988 | 45.96630 | 35409 ft | 426 kts | 247° |
| 2026-04-27 10:42 | 56.37863 | 45.86652 | 35403 ft | 426 kts | 247° |
| 2026-04-27 10:42 | 56.35743 | 45.76739 | 35404 ft | 426 kts | 247° |
| 2026-04-27 10:43 | 56.33602 | 45.66784 | 35392 ft | 426 kts | 247° |
| 2026-04-27 10:43 | 56.31458 | 45.56858 | 35392 ft | 425 kts | 247° |
| 2026-04-27 10:44 | 56.30379 | 45.51874 | 35495 ft | 430 kts | 243° |
| 2026-04-27 10:44 | 56.29280 | 45.46824 | 35472 ft | 435 kts | 244° |
| 2026-04-27 10:44 | 56.27047 | 45.36592 | 35397 ft | 445 kts | 244° |
| 2026-04-27 10:45 | 56.24755 | 45.26131 | 35395 ft | 451 kts | 244° |
| 2026-04-27 10:45 | 56.22437 | 45.15591 | 35383 ft | 455 kts | 244° |
| 2026-04-27 10:46 | 56.20099 | 45.05011 | 35379 ft | 458 kts | 244° |
| 2026-04-27 10:46 | 56.17743 | 44.94398 | 35383 ft | 459 kts | 244° |
| 2026-04-27 10:47 | 56.15362 | 44.83728 | 35382 ft | 458 kts | 244° |
| 2026-04-27 10:47 | 56.12991 | 44.73154 | 35368 ft | 458 kts | 244° |
| 2026-04-27 10:48 | 56.11014 | 44.62241 | 35364 ft | 464 kts | 256° |
| 2026-04-27 10:48 | 56.10300 | 44.50762 | 35361 ft | 466 kts | 260° |
| 2026-04-27 10:49 | 56.09673 | 44.39172 | 35354 ft | 466 kts | 260° |
| 2026-04-27 10:49 | 56.09000 | 44.27642 | 35354 ft | 465 kts | 259° |
| 2026-04-27 10:50 | 56.08297 | 44.16246 | 35340 ft | 464 kts | 259° |
| 2026-04-27 10:50 | 56.07570 | 44.04757 | 35338 ft | 464 kts | 259° |
| 2026-04-27 10:51 | 56.06836 | 43.93289 | 35334 ft | 464 kts | 259° |
| 2026-04-27 10:51 | 56.06466 | 43.87550 | 35168 ft | 449 kts | 261° |
| 2026-04-27 10:51 | 56.06121 | 43.82158 | 35205 ft | 426 kts | 260° |
| 2026-04-27 10:52 | 56.05787 | 43.77006 | 35242 ft | 409 kts | 260° |
| 2026-04-27 10:52 | 56.05456 | 43.72013 | 35288 ft | 407 kts | 260° |
| 2026-04-27 10:52 | 56.04770 | 43.61824 | 35329 ft | 415 kts | 260° |
| 2026-04-27 10:53 | 56.03719 | 43.46292 | 35344 ft | 423 kts | 260° |
| 2026-04-27 10:54 | 56.03004 | 43.35813 | 35329 ft | 424 kts | 261° |
| 2026-04-27 10:54 | 56.02946 | 43.25244 | 35329 ft | 427 kts | 268° |
| 2026-04-27 10:55 | 56.03164 | 43.14659 | 35328 ft | 426 kts | 268° |
| 2026-04-27 10:55 | 56.03351 | 43.04071 | 35325 ft | 425 kts | 268° |
| 2026-04-27 10:56 | 56.03511 | 42.93568 | 35319 ft | 424 kts | 267° |
| 2026-04-27 10:56 | 56.03659 | 42.82967 | 35314 ft | 424 kts | 267° |
| 2026-04-27 10:57 | 56.03799 | 42.72452 | 35310 ft | 424 kts | 267° |
| 2026-04-27 10:57 | 56.03930 | 42.61927 | 35311 ft | 424 kts | 267° |
| 2026-04-27 10:58 | 56.03392 | 42.51569 | 35311 ft | 417 kts | 254° |
| 2026-04-27 10:58 | 56.01471 | 42.41828 | 35306 ft | 414 kts | 245° |
| 2026-04-27 10:59 | 55.99254 | 42.32313 | 35303 ft | 414 kts | 245° |
| 2026-04-27 10:59 | 55.97064 | 42.22847 | 35299 ft | 414 kts | 246° |
| 2026-04-27 11:00 | 55.93775 | 42.08560 | 35304 ft | 414 kts | 246° |
| 2026-04-27 11:00 | 55.91581 | 41.99069 | 35297 ft | 414 kts | 245° |
| 2026-04-27 11:01 | 55.89372 | 41.89554 | 35300 ft | 414 kts | 245° |
| 2026-04-27 11:01 | 55.87302 | 41.79955 | 35295 ft | 416 kts | 252° |
| 2026-04-27 11:02 | 55.86449 | 41.69797 | 35278 ft | 418 kts | 263° |
| 2026-04-27 11:02 | 55.86183 | 41.59512 | 35297 ft | 411 kts | 263° |
| 2026-04-27 11:03 | 55.85951 | 41.51074 | 35296 ft | 411 kts | 263° |
| 2026-04-27 11:03 | 55.85643 | 41.40906 | 35291 ft | 410 kts | 262° |
| 2026-04-27 11:04 | 55.85483 | 41.35855 | 35167 ft | 412 kts | 262° |
| 2026-04-27 11:04 | 55.85321 | 41.30796 | 34680 ft | 408 kts | 262° |
| 2026-04-27 11:04 | 55.85159 | 41.25773 | 34257 ft | 402 kts | 262° |
| 2026-04-27 11:04 | 55.85000 | 41.20885 | 34052 ft | 391 kts | 261° |
| 2026-04-27 11:05 | 55.84844 | 41.16112 | 33916 ft | 379 kts | 261° |
| 2026-04-27 11:05 | 55.84685 | 41.11437 | 33749 ft | 384 kts | 261° |
| 2026-04-27 11:05 | 55.84516 | 41.06659 | 33577 ft | 394 kts | 261° |
| 2026-04-27 11:05 | 55.84339 | 41.01692 | 33417 ft | 401 kts | 261° |
| 2026-04-27 11:06 | 55.83995 | 40.91859 | 33279 ft | 395 kts | 261° |
| 2026-04-27 11:06 | 55.83653 | 40.82217 | 33273 ft | 389 kts | 261° |
| 2026-04-27 11:07 | 55.83292 | 40.72534 | 33458 ft | 402 kts | 264° |
| 2026-04-27 11:07 | 55.82912 | 40.62384 | 33358 ft | 417 kts | 264° |
| 2026-04-27 11:08 | 55.82498 | 40.51922 | 33288 ft | 431 kts | 263° |
| 2026-04-27 11:08 | 55.82057 | 40.41178 | 33260 ft | 441 kts | 263° |
| 2026-04-27 11:09 | 55.81598 | 40.30132 | 33260 ft | 450 kts | 263° |
| 2026-04-27 11:09 | 55.81125 | 40.19002 | 33241 ft | 453 kts | 263° |
| 2026-04-27 11:10 | 55.80643 | 40.07839 | 32958 ft | 457 kts | 263° |
| 2026-04-27 11:10 | 55.80397 | 40.02238 | 32406 ft | 451 kts | 263° |
| 2026-04-27 11:10 | 55.80151 | 39.96694 | 31886 ft | 446 kts | 263° |
| 2026-04-27 11:11 | 55.79905 | 39.91205 | 31395 ft | 441 kts | 263° |
| 2026-04-27 11:11 | 55.79661 | 39.85808 | 30901 ft | 436 kts | 264° |
| 2026-04-27 11:11 | 55.79416 | 39.80485 | 30420 ft | 431 kts | 263° |
| 2026-04-27 11:11 | 55.79113 | 39.75250 | 29946 ft | 427 kts | 262° |
| 2026-04-27 11:12 | 55.78757 | 39.69996 | 29473 ft | 422 kts | 261° |
| 2026-04-27 11:12 | 55.78395 | 39.64860 | 28942 ft | 418 kts | 262° |
| 2026-04-27 11:12 | 55.78037 | 39.59749 | 28367 ft | 414 kts | 262° |
| 2026-04-27 11:12 | 55.77691 | 39.54730 | 27808 ft | 409 kts | 262° |
| 2026-04-27 11:13 | 55.77352 | 39.49736 | 27253 ft | 405 kts | 263° |
| 2026-04-27 11:13 | 55.77017 | 39.44809 | 26709 ft | 400 kts | 263° |
| 2026-04-27 11:13 | 55.76684 | 39.39948 | 26187 ft | 396 kts | 263° |
| 2026-04-27 11:13 | 55.76350 | 39.35126 | 25658 ft | 392 kts | 263° |
| 2026-04-27 11:14 | 55.76012 | 39.30306 | 25154 ft | 388 kts | 263° |
| 2026-04-27 11:14 | 55.75678 | 39.25576 | 24649 ft | 384 kts | 264° |
| 2026-04-27 11:14 | 55.75349 | 39.20936 | 24156 ft | 380 kts | 264° |
| 2026-04-27 11:14 | 55.75019 | 39.16299 | 23673 ft | 376 kts | 264° |
| 2026-04-27 11:15 | 55.74692 | 39.11706 | 23200 ft | 373 kts | 264° |
| 2026-04-27 11:15 | 55.74363 | 39.07125 | 22707 ft | 370 kts | 264° |
| 2026-04-27 11:15 | 55.74040 | 39.02626 | 22130 ft | 367 kts | 264° |
| 2026-04-27 11:15 | 55.73716 | 38.98164 | 21568 ft | 364 kts | 264° |
| 2026-04-27 11:16 | 55.73405 | 38.93744 | 21035 ft | 360 kts | 266° |
| 2026-04-27 11:16 | 55.73426 | 38.89304 | 20493 ft | 356 kts | 275° |
| 2026-04-27 11:16 | 55.73665 | 38.84979 | 20010 ft | 352 kts | 277° |
| 2026-04-27 11:16 | 55.73928 | 38.80674 | 19652 ft | 346 kts | 277° |
| 2026-04-27 11:17 | 55.74170 | 38.76499 | 19297 ft | 340 kts | 276° |
| 2026-04-27 11:17 | 55.74393 | 38.72351 | 18937 ft | 335 kts | 276° |
| 2026-04-27 11:17 | 55.74600 | 38.68232 | 18580 ft | 330 kts | 276° |
| 2026-04-27 11:17 | 55.74794 | 38.64223 | 18230 ft | 326 kts | 276° |
| 2026-04-27 11:18 | 55.74988 | 38.60227 | 17887 ft | 321 kts | 277° |
| 2026-04-27 11:18 | 55.75508 | 38.56454 | 17588 ft | 315 kts | 292° |
| 2026-04-27 11:18 | 55.76588 | 38.53160 | 17558 ft | 302 kts | 303° |
| 2026-04-27 11:18 | 55.77778 | 38.50203 | 17545 ft | 289 kts | 304° |
| 2026-04-27 11:19 | 55.78944 | 38.47361 | 17517 ft | 276 kts | 304° |
| 2026-04-27 11:19 | 55.80043 | 38.44645 | 17494 ft | 264 kts | 303° |
| 2026-04-27 11:19 | 55.81077 | 38.42058 | 17477 ft | 252 kts | 303° |
| 2026-04-27 11:19 | 55.82062 | 38.39577 | 17454 ft | 243 kts | 303° |
| 2026-04-27 11:20 | 55.83080 | 38.37168 | 17437 ft | 244 kts | 314° |